createdAt,value
2024-01-21T00:00:19.074Z,96.41
2024-01-21T00:02:46.931Z,95.41
2024-01-21T00:05:13.446Z,96.81
2024-01-21T00:07:39.987Z,95.89
2024-01-21T00:10:08.785Z,96.29
2024-01-21T00:12:35.316Z,99.13
2024-01-21T00:15:01.854Z,99.98
2024-01-21T00:17:28.367Z,98.40
2024-01-21T00:19:56.250Z,96.98
2024-01-21T00:22:22.958Z,96.00
2024-01-21T00:24:49.505Z,93.98
2024-01-21T00:27:16.138Z,94.75
2024-01-21T00:29:42.645Z,95.18
2024-01-21T00:32:09.158Z,97.02
2024-01-21T00:34:35.782Z,94.29
2024-01-21T00:37:04.084Z,94.72
2024-01-21T00:39:30.581Z,96.72
2024-01-21T00:42:04.501Z,92.98
2024-01-21T00:44:34.696Z,96.43
2024-01-21T00:47:01.178Z,94.83
2024-01-21T00:49:28.019Z,94.54
2024-01-21T00:51:54.565Z,97.09
2024-01-21T00:54:22.696Z,96.91
2024-01-21T00:56:49.412Z,95.35
2024-01-21T00:59:15.939Z,98.42
2024-01-21T01:01:42.488Z,95.25
2024-01-21T01:04:09.132Z,98.20
2024-01-21T01:06:35.654Z,99.92
2024-01-21T01:09:02.156Z,99.80
2024-01-21T01:11:29.973Z,98.80
2024-01-21T01:13:56.468Z,100.00
2024-01-21T01:16:23.133Z,100.00
2024-01-21T01:18:49.713Z,97.91
2024-01-21T01:21:16.352Z,95.53
2024-01-21T01:23:42.886Z,98.94
2024-01-21T01:26:09.386Z,98.71
2024-01-21T01:28:37.264Z,99.71
2024-01-21T01:31:03.943Z,98.87
2024-01-21T01:33:30.621Z,99.03
2024-01-21T01:35:57.242Z,96.63
2024-01-21T01:38:23.739Z,98.66
2024-01-21T01:40:50.233Z,98.08
2024-01-21T01:43:16.781Z,98.36
2024-01-21T01:45:44.633Z,98.02
2024-01-21T01:48:11.872Z,97.28
2024-01-21T01:50:38.418Z,98.67
2024-01-21T01:53:04.986Z,98.57
2024-01-21T01:55:32.333Z,98.98
2024-01-21T01:57:59.106Z,97.29
2024-01-21T02:00:25.588Z,97.27
2024-01-21T02:02:53.542Z,96.71
2024-01-21T02:05:20.145Z,97.67
2024-01-21T02:07:46.701Z,97.37
2024-01-21T02:10:13.398Z,98.68
2024-01-21T02:12:43.716Z,98.30
2024-01-21T02:15:10.525Z,98.91
2024-01-21T02:17:37.074Z,97.53
2024-01-21T02:20:06.164Z,98.41
2024-01-21T02:22:34.701Z,98.44
2024-01-21T02:25:02.626Z,98.94
2024-01-21T02:27:29.160Z,97.49
2024-01-21T02:29:55.668Z,99.40
2024-01-21T02:32:22.158Z,98.96
2024-01-21T02:34:48.778Z,100.00
2024-01-21T02:37:15.401Z,96.03
2024-01-21T02:39:41.964Z,95.82
2024-01-21T02:42:09.918Z,98.79
2024-01-21T02:44:36.508Z,97.18
2024-01-21T02:47:03.042Z,95.34
2024-01-21T02:49:29.970Z,95.49
2024-01-21T02:51:57.280Z,97.01
2024-01-21T02:54:24.017Z,95.31
2024-01-21T02:56:51.143Z,97.17
2024-01-21T02:59:19.010Z,95.14
2024-01-21T03:01:45.538Z,93.78
2024-01-21T03:04:12.183Z,96.42
2024-01-21T03:06:38.871Z,97.29
2024-01-21T03:09:05.479Z,95.76
2024-01-21T03:11:32.743Z,97.40
2024-01-21T03:13:59.344Z,96.27
2024-01-21T03:16:27.208Z,96.34
2024-01-21T03:18:53.714Z,96.63
2024-01-21T03:21:20.316Z,94.90
2024-01-21T03:23:46.874Z,95.66
2024-01-21T03:26:13.329Z,96.40
2024-01-21T03:28:39.827Z,96.00
2024-01-21T03:31:06.368Z,97.10
2024-01-21T03:33:34.463Z,96.74
2024-01-21T03:36:02.054Z,97.55
2024-01-21T03:38:28.609Z,97.15
2024-01-21T03:40:55.134Z,95.48
2024-01-21T03:43:21.658Z,96.48
2024-01-21T03:45:48.220Z,95.86
2024-01-21T03:48:14.917Z,96.65
2024-01-21T03:50:42.871Z,95.77
2024-01-21T03:53:09.385Z,92.98
2024-01-21T03:55:35.981Z,94.98
2024-01-21T03:58:02.537Z,94.77
2024-01-21T04:00:29.138Z,93.58
2024-01-21T04:02:55.667Z,91.98
2024-01-21T04:05:22.180Z,92.84
2024-01-21T04:07:49.991Z,90.98
2024-01-21T04:10:16.478Z,92.02
2024-01-21T04:12:43.028Z,92.58
2024-01-21T04:15:09.782Z,94.14
2024-01-21T04:17:36.314Z,92.18
2024-01-21T04:20:03.023Z,92.96
2024-01-21T04:22:29.511Z,91.83
2024-01-21T04:24:57.395Z,91.65
2024-01-21T04:27:23.983Z,90.75
2024-01-21T04:29:50.496Z,90.39
2024-01-21T04:32:17.043Z,90.72
2024-01-21T04:34:43.773Z,91.75
2024-01-21T04:37:10.325Z,89.58
2024-01-21T04:39:36.935Z,90.38
2024-01-21T04:42:05.216Z,91.16
2024-01-21T04:44:31.704Z,87.65
2024-01-21T04:46:58.225Z,87.98
2024-01-21T04:49:24.794Z,88.87
2024-01-21T04:51:51.404Z,86.37
2024-01-21T04:54:17.973Z,86.16
2024-01-21T04:56:44.901Z,85.64
2024-01-21T04:59:13.207Z,87.44
2024-01-21T05:01:39.703Z,88.58
2024-01-21T05:04:06.360Z,86.69
2024-01-21T05:06:33.149Z,87.81
2024-01-21T05:08:59.713Z,84.98
2024-01-21T05:11:26.185Z,87.00
2024-01-21T05:13:52.678Z,86.88
2024-01-21T05:16:20.550Z,86.43
2024-01-21T05:18:47.306Z,87.03
2024-01-21T05:21:19.446Z,88.49
2024-01-21T05:23:46.014Z,86.68
2024-01-21T05:26:12.486Z,88.03
2024-01-21T05:28:40.006Z,88.68
2024-01-21T05:31:06.488Z,88.71
2024-01-21T05:33:34.480Z,86.15
2024-01-21T05:36:01.020Z,86.91
2024-01-21T05:38:27.443Z,86.23
2024-01-21T05:40:53.947Z,87.29
2024-01-21T05:43:20.381Z,89.78
2024-01-21T05:45:46.876Z,88.65
2024-01-21T05:48:13.553Z,87.95
2024-01-21T05:50:41.483Z,88.01
2024-01-21T05:53:08.621Z,86.63
2024-01-21T05:55:35.153Z,88.76
2024-01-21T05:58:01.703Z,88.43
2024-01-21T06:00:28.358Z,86.45
2024-01-21T06:02:55.012Z,86.64
2024-01-21T06:05:21.490Z,87.15
2024-01-21T06:07:49.322Z,85.99
2024-01-21T06:10:17.066Z,86.58
2024-01-21T06:12:43.606Z,87.92
2024-01-21T06:15:10.779Z,85.94
2024-01-21T06:17:37.300Z,86.03
2024-01-21T06:20:05.834Z,88.42
2024-01-21T06:22:33.003Z,88.21
2024-01-21T06:25:00.795Z,84.69
2024-01-21T06:27:27.406Z,87.10
2024-01-21T06:29:54.031Z,82.88
2024-01-21T06:32:20.556Z,83.30
2024-01-21T06:34:47.197Z,86.33
2024-01-21T06:37:13.768Z,86.96
2024-01-21T06:39:40.330Z,86.60
2024-01-21T06:42:08.169Z,87.71
2024-01-21T06:44:36.242Z,85.45
2024-01-21T06:47:02.769Z,86.76
2024-01-21T06:49:29.478Z,85.83
2024-01-21T06:51:56.177Z,87.47
2024-01-21T06:54:22.759Z,88.17
2024-01-21T06:56:49.360Z,85.47
2024-01-21T06:59:17.220Z,82.89
2024-01-21T07:01:43.899Z,81.76
2024-01-21T07:04:11.193Z,81.97
2024-01-21T07:06:37.824Z,81.84
2024-01-21T07:09:04.352Z,80.23
2024-01-21T07:11:30.855Z,80.14
2024-01-21T07:13:57.541Z,78.36
2024-01-21T07:16:25.331Z,78.90
2024-01-21T07:18:51.881Z,75.84
2024-01-21T07:21:18.526Z,75.28
2024-01-21T07:23:45.021Z,76.87
2024-01-21T07:26:11.553Z,75.96
2024-01-21T07:28:38.022Z,75.36
2024-01-21T07:31:04.593Z,73.76
2024-01-21T07:33:32.674Z,74.19
2024-01-21T07:35:59.393Z,74.16
2024-01-21T07:38:25.846Z,73.79
2024-01-21T07:40:52.283Z,72.25
2024-01-21T07:43:18.730Z,74.37
2024-01-21T07:45:45.526Z,72.90
2024-01-21T07:48:12.188Z,72.06
2024-01-21T07:50:40.092Z,70.92
2024-01-21T07:53:06.601Z,71.06
2024-01-21T07:55:33.156Z,71.96
2024-01-21T07:57:59.751Z,71.27
2024-01-21T08:00:26.287Z,72.81
2024-01-21T08:02:53.092Z,70.26
2024-01-21T08:05:19.851Z,69.33
2024-01-21T08:07:47.748Z,69.22
2024-01-21T08:10:14.345Z,71.12
2024-01-21T08:12:41.152Z,69.63
2024-01-21T08:15:08.284Z,69.28
2024-01-21T08:17:34.862Z,67.82
2024-01-21T08:20:01.596Z,69.25
2024-01-21T08:22:28.151Z,67.84
2024-01-21T08:24:56.071Z,71.45
2024-01-21T08:27:22.761Z,68.87
2024-01-21T08:29:49.305Z,68.68
2024-01-21T08:32:15.876Z,68.48
2024-01-21T08:34:42.453Z,71.05
2024-01-21T08:37:09.022Z,68.48
2024-01-21T08:39:38.861Z,68.86
2024-01-21T08:42:07.675Z,68.12
2024-01-21T08:44:34.120Z,67.48
2024-01-21T08:47:00.646Z,67.26
2024-01-21T08:49:27.206Z,67.79
2024-01-21T08:51:53.773Z,67.32
2024-01-21T08:54:20.292Z,68.29
2024-01-21T08:56:46.773Z,66.88
2024-01-21T08:59:14.807Z,67.24
2024-01-21T09:01:41.365Z,66.79
2024-01-21T09:04:07.929Z,64.69
2024-01-21T09:06:35.024Z,67.57
2024-01-21T09:09:01.599Z,69.11
2024-01-21T09:11:28.118Z,69.09
2024-01-21T09:13:54.596Z,68.22
2024-01-21T09:16:22.381Z,69.82
2024-01-21T09:18:49.127Z,68.43
2024-01-21T09:21:23.818Z,70.10
2024-01-21T09:23:56.640Z,67.97
2024-01-21T09:26:23.172Z,67.80
2024-01-21T09:28:49.665Z,66.54
2024-01-21T09:31:16.200Z,67.59
2024-01-21T09:33:44.554Z,62.53
2024-01-21T09:36:12.459Z,65.78
2024-01-21T09:38:38.953Z,66.09
2024-01-21T09:41:10.774Z,62.07
2024-01-21T09:43:42.159Z,62.32
2024-01-21T09:46:12.512Z,62.06
2024-01-21T09:48:40.020Z,61.35
2024-01-21T09:51:07.955Z,62.51
2024-01-21T09:53:34.487Z,60.32
2024-01-21T09:56:06.613Z,63.03
2024-01-21T09:58:39.903Z,62.05
2024-01-21T10:01:07.123Z,61.41
2024-01-21T10:03:33.844Z,58.45
2024-01-21T10:06:00.352Z,57.74
2024-01-21T10:08:28.228Z,57.36
2024-01-21T10:10:54.767Z,53.95
2024-01-21T10:13:21.278Z,57.36
2024-01-21T10:15:47.945Z,57.51
2024-01-21T10:18:14.517Z,58.29
2024-01-21T10:20:42.986Z,54.40
2024-01-21T10:23:10.093Z,57.24
2024-01-21T10:25:38.296Z,56.72
2024-01-21T10:28:05.019Z,53.47
2024-01-21T10:30:31.616Z,57.23
2024-01-21T10:33:00.157Z,54.10
2024-01-21T10:35:27.589Z,56.70
2024-01-21T10:37:54.183Z,55.84
2024-01-21T10:40:20.684Z,55.64
2024-01-21T10:42:49.551Z,54.84
2024-01-21T10:45:16.970Z,57.08
2024-01-21T10:47:44.415Z,55.40
2024-01-21T10:50:12.627Z,56.57
2024-01-21T10:52:44.260Z,56.51
2024-01-21T10:55:10.955Z,57.95
2024-01-21T10:57:37.555Z,55.40
2024-01-21T11:00:06.915Z,55.39
2024-01-21T11:02:33.717Z,53.83
2024-01-21T11:05:00.328Z,54.38
2024-01-21T11:07:27.137Z,54.01
2024-01-21T11:09:55.501Z,52.67
2024-01-21T11:12:23.613Z,53.67
2024-01-21T11:14:50.521Z,51.76
2024-01-21T11:17:18.743Z,51.75
2024-01-21T11:19:51.738Z,53.84
2024-01-21T11:22:20.220Z,55.64
2024-01-21T11:24:47.112Z,52.53
2024-01-21T11:27:18.059Z,53.11
2024-01-21T11:29:44.749Z,53.47
2024-01-21T11:32:11.917Z,55.76
2024-01-21T11:34:42.393Z,55.11
2024-01-21T11:37:10.312Z,54.64
2024-01-21T11:39:36.863Z,53.14
2024-01-21T11:42:03.967Z,55.52
2024-01-21T11:44:33.077Z,55.17
2024-01-21T11:47:01.160Z,56.66
2024-01-21T11:49:27.844Z,54.10
2024-01-21T11:51:55.793Z,57.50
2024-01-21T11:54:22.470Z,57.02
2024-01-21T11:56:49.824Z,58.92
2024-01-21T11:59:16.796Z,56.12
2024-01-21T12:01:43.798Z,55.46
2024-01-21T12:04:11.489Z,58.58
2024-01-21T12:06:40.431Z,58.25
2024-01-21T12:09:09.168Z,58.52
2024-01-21T12:11:36.895Z,58.91
2024-01-21T12:14:04.991Z,57.97
2024-01-21T12:16:31.730Z,59.93
2024-01-21T12:18:58.373Z,57.18
2024-01-21T12:21:27.783Z,59.07
2024-01-21T12:23:54.336Z,58.69
2024-01-21T12:26:23.436Z,60.08
2024-01-21T12:29:00.803Z,58.88
2024-01-21T12:31:27.666Z,58.93
2024-01-21T12:33:54.715Z,59.67
2024-01-21T12:36:21.521Z,60.32
2024-01-21T12:38:48.242Z,58.18
2024-01-21T12:41:14.711Z,59.47
2024-01-21T12:43:42.629Z,59.77
2024-01-21T12:46:09.501Z,60.73
2024-01-21T12:48:36.109Z,61.17
2024-01-21T12:51:02.975Z,61.13
2024-01-21T12:53:29.431Z,59.30
2024-01-21T12:55:56.054Z,60.83
2024-01-21T12:58:22.985Z,60.73
2024-01-21T13:00:51.077Z,59.49
2024-01-21T13:03:17.890Z,59.99
2024-01-21T13:05:44.561Z,60.44
2024-01-21T13:08:11.443Z,58.13
2024-01-21T13:10:38.004Z,61.26
2024-01-21T13:13:05.269Z,59.34
2024-01-21T13:15:31.896Z,61.09
2024-01-21T13:18:00.109Z,61.80
2024-01-21T13:20:27.124Z,62.16
2024-01-21T13:22:53.683Z,61.86
2024-01-21T13:25:20.799Z,63.17
2024-01-21T13:27:50.336Z,63.58
2024-01-21T13:30:17.057Z,61.82
2024-01-21T13:32:43.624Z,61.56
2024-01-21T13:35:11.776Z,62.26
2024-01-21T13:37:38.424Z,60.18
2024-01-21T13:40:05.924Z,61.49
2024-01-21T13:42:32.421Z,61.16
2024-01-21T13:44:58.906Z,61.76
2024-01-21T13:47:25.439Z,61.94
2024-01-21T13:49:52.107Z,62.77
2024-01-21T13:52:20.285Z,62.03
2024-01-21T13:54:46.861Z,62.38
2024-01-21T13:57:13.781Z,61.40
2024-01-21T13:59:40.296Z,62.61
2024-01-21T14:02:13.421Z,64.21
2024-01-21T14:04:42.026Z,63.57
2024-01-21T14:07:08.515Z,63.29
2024-01-21T14:09:36.364Z,63.82
2024-01-21T14:12:02.959Z,64.04
2024-01-21T14:14:29.735Z,62.72
2024-01-21T14:16:56.161Z,64.90
2024-01-21T14:19:22.854Z,65.93
2024-01-21T14:21:49.364Z,65.98
2024-01-21T14:24:15.904Z,65.25
2024-01-21T14:26:46.563Z,66.74
2024-01-21T14:29:17.268Z,67.01
2024-01-21T14:31:43.883Z,66.88
2024-01-21T14:34:10.874Z,65.22
2024-01-21T14:36:37.412Z,66.45
2024-01-21T14:39:07.433Z,67.52
2024-01-21T14:41:33.959Z,68.35
2024-01-21T14:44:01.734Z,67.78
2024-01-21T14:46:28.376Z,67.36
2024-01-21T14:48:55.035Z,66.33
2024-01-21T14:51:21.668Z,67.45
2024-01-21T14:53:48.516Z,67.58
2024-01-21T14:56:15.120Z,69.68
2024-01-21T14:58:41.756Z,68.64
2024-01-21T15:01:09.678Z,68.53
2024-01-21T15:03:36.232Z,67.94
2024-01-21T15:06:03.100Z,68.25
2024-01-21T15:08:29.724Z,68.03
2024-01-21T15:10:56.222Z,67.20
2024-01-21T15:13:26.383Z,70.42
2024-01-21T15:15:53.063Z,69.87
2024-01-21T15:18:30.082Z,70.47
2024-01-21T15:21:00.617Z,68.79
2024-01-21T15:23:27.067Z,67.75
2024-01-21T15:25:53.644Z,68.65
2024-01-21T15:28:20.169Z,68.00
2024-01-21T15:30:46.857Z,67.27
2024-01-21T15:33:13.510Z,68.63
2024-01-21T15:35:41.330Z,69.60
2024-01-21T15:38:08.017Z,69.35
2024-01-21T15:40:34.468Z,67.91
2024-01-21T15:43:01.029Z,68.12
2024-01-21T15:45:27.538Z,66.60
2024-01-21T15:47:54.019Z,67.23
2024-01-21T15:50:20.604Z,68.48
2024-01-21T15:52:48.667Z,68.23
2024-01-21T15:55:15.211Z,68.92
2024-01-21T15:57:41.792Z,68.74
2024-01-21T16:00:09.253Z,67.42
2024-01-21T16:02:36.126Z,66.60
2024-01-21T16:05:03.260Z,66.84
2024-01-21T16:07:30.020Z,67.37
2024-01-21T16:09:58.115Z,67.38
2024-01-21T16:12:25.033Z,69.42
2024-01-21T16:14:51.699Z,67.34
2024-01-21T16:17:18.349Z,67.79
2024-01-21T16:19:44.858Z,67.90
2024-01-21T16:22:11.586Z,66.43
2024-01-21T16:24:38.224Z,67.16
2024-01-21T16:27:06.075Z,68.00
2024-01-21T16:29:32.579Z,66.72
2024-01-21T16:31:59.211Z,65.93
2024-01-21T16:34:25.825Z,66.05
2024-01-21T16:36:52.641Z,67.37
2024-01-21T16:39:19.475Z,67.58
2024-01-21T16:41:46.120Z,66.72
2024-01-21T16:44:15.483Z,65.00
2024-01-21T16:46:41.952Z,66.56
2024-01-21T16:49:10.715Z,64.90
2024-01-21T16:51:39.161Z,67.44
2024-01-21T16:54:08.729Z,67.67
2024-01-21T16:56:35.380Z,66.83
2024-01-21T16:59:01.984Z,67.72
2024-01-21T17:01:34.455Z,68.69
2024-01-21T17:04:01.426Z,68.24
2024-01-21T17:06:28.038Z,68.73
2024-01-21T17:08:54.628Z,67.30
2024-01-21T17:11:25.172Z,67.42
2024-01-21T17:13:51.936Z,67.21
2024-01-21T17:16:18.478Z,67.53
2024-01-21T17:18:55.595Z,66.20
2024-01-21T17:21:22.278Z,68.78
2024-01-21T17:23:50.267Z,68.45
2024-01-21T17:26:16.876Z,68.80
2024-01-21T17:28:43.353Z,68.42
2024-01-21T17:31:10.208Z,68.36
2024-01-21T17:33:36.853Z,70.12
2024-01-21T17:36:05.703Z,69.97
2024-01-21T17:38:32.300Z,69.67
2024-01-21T17:40:59.026Z,71.33
2024-01-21T17:43:25.591Z,72.76
2024-01-21T17:45:52.426Z,70.79
2024-01-21T17:48:19.436Z,69.97
2024-01-21T17:50:46.173Z,72.97
2024-01-21T17:53:14.420Z,71.51
2024-01-21T17:55:44.461Z,71.93
2024-01-21T17:58:12.519Z,71.78
2024-01-21T18:00:51.024Z,71.67
2024-01-21T18:03:24.825Z,70.90
2024-01-21T18:05:51.960Z,70.67
2024-01-21T18:08:24.837Z,71.17
2024-01-21T18:10:52.181Z,72.58
2024-01-21T18:13:19.012Z,72.26
2024-01-21T18:15:45.576Z,71.54
2024-01-21T18:18:12.185Z,71.34
2024-01-21T18:20:38.996Z,71.16
2024-01-21T18:23:05.624Z,72.22
2024-01-21T18:25:33.490Z,72.33
2024-01-21T18:28:01.272Z,73.41
2024-01-21T18:30:27.790Z,72.48
2024-01-21T18:32:54.508Z,73.83
2024-01-21T18:35:23.612Z,72.60
2024-01-21T18:37:50.365Z,74.63
2024-01-21T18:40:17.161Z,75.60
2024-01-21T18:42:45.049Z,75.21
2024-01-21T18:45:13.372Z,75.06
2024-01-21T18:47:40.212Z,76.35
2024-01-21T18:50:07.802Z,76.65
2024-01-21T18:52:35.021Z,76.96
2024-01-21T18:55:01.715Z,76.89
2024-01-21T18:57:30.831Z,77.06
2024-01-21T18:59:58.732Z,76.31
2024-01-21T19:02:25.205Z,76.16
2024-01-21T19:04:51.836Z,75.50
2024-01-21T19:07:22.184Z,76.49
2024-01-21T19:09:49.905Z,76.43
2024-01-21T19:12:16.460Z,76.62
2024-01-21T19:14:44.839Z,77.80
2024-01-21T19:17:13.089Z,76.71
2024-01-21T19:19:39.691Z,76.55
2024-01-21T19:22:06.601Z,76.58
2024-01-21T19:24:33.306Z,77.42
2024-01-21T19:27:05.961Z,77.21
2024-01-21T19:29:32.536Z,78.64
2024-01-21T19:31:59.284Z,76.93
2024-01-21T19:34:32.390Z,77.51
2024-01-21T19:36:59.173Z,76.55
2024-01-21T19:39:25.645Z,77.14
2024-01-21T19:41:52.468Z,75.89
2024-01-21T19:44:19.104Z,76.47
2024-01-21T19:46:45.613Z,76.15
2024-01-21T19:49:12.251Z,76.41
2024-01-21T19:51:40.183Z,77.43
2024-01-21T19:54:06.711Z,77.08
2024-01-21T19:56:33.315Z,77.48
2024-01-21T19:59:00.056Z,77.61
2024-01-21T20:01:26.512Z,77.56
2024-01-21T20:03:53.211Z,77.62
2024-01-21T20:06:19.910Z,77.53
2024-01-21T20:08:47.796Z,77.93
2024-01-21T20:11:14.499Z,76.94
2024-01-21T20:13:40.998Z,76.96
2024-01-21T20:16:07.641Z,78.76
2024-01-21T20:18:34.700Z,78.10
2024-01-21T20:21:01.352Z,79.26
2024-01-21T20:23:27.928Z,79.57
2024-01-21T20:25:55.778Z,80.04
2024-01-21T20:28:22.326Z,81.39
2024-01-21T20:30:49.054Z,81.29
2024-01-21T20:33:15.753Z,82.18
2024-01-21T20:35:42.796Z,82.14
2024-01-21T20:38:09.467Z,81.29
2024-01-21T20:40:38.203Z,83.52
2024-01-21T20:43:06.559Z,83.35
2024-01-21T20:45:33.124Z,84.23
2024-01-21T20:48:00.660Z,85.41
2024-01-21T20:50:29.773Z,85.47
2024-01-21T20:52:56.470Z,85.44
2024-01-21T20:55:23.783Z,84.88
2024-01-21T20:57:50.843Z,86.54
2024-01-21T21:00:19.556Z,86.83
2024-01-21T21:02:46.907Z,87.13
2024-01-21T21:05:13.776Z,87.96
2024-01-21T21:07:40.685Z,88.29
2024-01-21T21:10:08.258Z,88.89
2024-01-21T21:12:34.918Z,89.25
2024-01-21T21:15:05.277Z,89.82
2024-01-21T21:17:33.330Z,90.79
2024-01-21T21:19:59.998Z,90.04
2024-01-21T21:22:28.688Z,89.61
2024-01-21T21:24:57.949Z,90.05
2024-01-21T21:27:24.640Z,89.67
2024-01-21T21:30:12.233Z,90.77
2024-01-21T21:32:40.391Z,90.85
2024-01-21T21:35:07.903Z,91.27
2024-01-21T21:37:34.574Z,91.15
2024-01-21T21:40:01.281Z,91.96
2024-01-21T21:42:27.900Z,92.40
2024-01-21T21:44:58.429Z,91.80
2024-01-21T21:47:25.250Z,92.19
2024-01-21T21:49:54.304Z,91.97
2024-01-21T21:52:22.889Z,91.81
2024-01-21T21:54:49.620Z,91.73
2024-01-21T21:57:16.326Z,90.54
2024-01-21T21:59:43.358Z,91.08
2024-01-21T22:02:10.100Z,90.65
2024-01-21T22:04:36.912Z,90.97
2024-01-21T22:07:05.996Z,89.51
2024-01-21T22:09:33.337Z,90.81
2024-01-21T22:11:59.918Z,91.02
2024-01-21T22:14:26.731Z,91.25
2024-01-21T22:16:53.275Z,91.10
2024-01-21T22:19:20.029Z,90.97
2024-01-21T22:21:47.967Z,89.87
2024-01-21T22:24:15.998Z,90.81
2024-01-21T22:26:42.581Z,90.73
2024-01-21T22:29:09.485Z,92.25
2024-01-21T22:31:36.263Z,93.47
2024-01-21T22:34:03.233Z,93.40
2024-01-21T22:36:29.824Z,94.01
2024-01-21T22:38:57.400Z,94.00
2024-01-21T22:41:25.295Z,93.80
2024-01-21T22:43:52.049Z,94.41
2024-01-21T22:46:18.660Z,93.93
2024-01-21T22:48:45.398Z,95.61
2024-01-21T22:51:12.308Z,95.80
2024-01-21T22:53:40.322Z,97.80
2024-01-21T22:56:07.215Z,97.54
2024-01-21T22:58:37.978Z,95.54
2024-01-21T23:01:04.818Z,94.21
2024-01-21T23:03:31.490Z,94.83
2024-01-21T23:05:58.207Z,94.32
2024-01-21T23:08:24.756Z,94.15
2024-01-21T23:10:51.471Z,96.13
2024-01-21T23:13:18.092Z,95.20
2024-01-21T23:15:45.978Z,94.39
2024-01-21T23:18:12.935Z,95.01
2024-01-21T23:20:39.539Z,95.82
2024-01-21T23:23:06.288Z,94.97
2024-01-21T23:25:32.802Z,94.67
2024-01-21T23:27:59.329Z,94.68
2024-01-21T23:30:25.932Z,94.76
2024-01-21T23:32:55.639Z,96.21
2024-01-21T23:35:22.274Z,96.27
2024-01-21T23:37:48.804Z,96.83
2024-01-21T23:40:15.652Z,97.61
2024-01-21T23:42:42.193Z,95.78
2024-01-21T23:45:09.360Z,96.81
2024-01-21T23:47:36.039Z,97.82
2024-01-21T23:50:04.342Z,98.80
2024-01-21T23:52:31.457Z,98.05
2024-01-21T23:54:57.976Z,98.51
2024-01-21T23:57:24.442Z,99.45
2024-01-21T23:59:51.038Z,99.43
